Time;durP1;ratioP1;P1;durP2;ratioP2;P2;SDS_P1;SDS_P2;PMS_P1;PMS_P2;Temp;Humidity;BMP_temperature;BMP_pressure;BME280_temperature;BME280_humidity;BME280_pressure;Samples;Min_cycle;Max_cycle;Signal;HPM_P1;HPM_P2
2022/09/12 00:01:36;;;;;;;8.25;7.07;;;14.30;99.90;;;;;;5033391;28;20040;-88
2022/09/12 00:04:02;;;;;;;9.52;6.95;;;13.70;99.90;;;;;;5018503;28;20201;-88
2022/09/12 00:06:31;;;;;;;7.63;6.30;;;13.70;99.90;;;;;;5037638;28;20047;-89
2022/09/12 00:09:01;;;;;;;10.35;7.03;;;14.60;99.90;;;;;;5037416;28;20479;-87
2022/09/12 00:11:27;;;;;;;7.93;7.13;;;13.70;99.90;;;;;;5036335;28;20123;-88
2022/09/12 00:14:00;;;;;;;11.32;7.00;;;13.60;99.90;;;;;;5052485;28;20503;-88
2022/09/12 00:16:28;;;;;;;5.72;4.88;;;13.60;99.90;;;;;;5036684;28;20439;-89
2022/09/12 00:18:54;;;;;;;7.45;6.75;;;13.60;99.90;;;;;;5032267;28;20135;-88
2022/09/12 00:21:21;;;;;;;9.40;7.25;;;13.60;99.90;;;;;;5016944;28;20072;-89
2022/09/12 00:23:47;;;;;;;7.80;5.88;;;13.60;99.90;;;;;;5016875;28;20044;-88
2022/09/12 00:26:14;;;;;;;8.88;7.15;;;13.50;99.90;;;;;;5049741;28;20067;-88
2022/09/12 00:28:40;;;;;;;7.93;7.13;;;13.10;99.90;;;;;;5016338;28;20033;-88
2022/09/12 00:31:09;;;;;;;7.70;6.90;;;14.50;99.90;;;;;;5049034;28;20047;-88
2022/09/12 00:33:36;;;;;;;9.13;6.93;;;13.40;99.90;;;;;;5032813;28;20210;-88
2022/09/12 00:36:07;;;;;;;8.50;7.60;;;13.80;99.90;;;;;;5032077;28;20500;-88
2022/09/12 00:38:34;;;;;;;11.18;7.95;;;13.50;99.90;;;;;;5032528;28;20446;-88
2022/09/12 00:41:00;;;;;;;7.90;6.88;;;14.00;99.90;;;;;;5016171;28;20419;-88
2022/09/12 00:43:29;;;;;;;7.30;6.50;;;13.40;99.90;;;;;;5048731;28;20048;-88
2022/09/12 00:45:56;;;;;;;8.68;7.28;;;13.30;99.90;;;;;;5032646;28;20381;-88
2022/09/12 00:48:30;;;;;;;8.93;8.10;;;14.50;99.90;;;;;;5048379;28;20052;-88
2022/09/12 00:50:56;;;;;;;11.10;7.35;;;13.30;99.90;;;;;;5032714;28;20060;-89
2022/09/12 00:53:25;;;;;;;10.88;8.25;;;13.30;99.90;;;;;;5049010;28;20045;-88
2022/09/12 00:55:53;;;;;;;8.65;7.00;;;13.30;99.90;;;;;;5016516;28;20040;-88
2022/09/12 00:58:23;;;;;;;8.40;7.22;;;13.30;99.90;;;;;;5032121;28;20048;-88
2022/09/12 01:00:49;;;;;;;11.20;8.48;;;14.00;99.90;;;;;;5048921;28;20101;-88
2022/09/12 01:03:18;;;;;;;9.55;8.55;;;13.20;99.90;;;;;;5032369;28;20037;-88
2022/09/12 01:05:56;;;;;;;11.50;8.70;;;13.30;99.90;;;;;;5032258;28;20064;-88
2022/09/12 01:08:23;;;;;;;10.13;8.98;;;13.20;99.90;;;;;;5052421;28;20044;-88
2022/09/12 01:10:49;;;;;;;10.15;9.15;;;13.20;99.90;;;;;;5020565;28;20043;-88
2022/09/12 01:13:15;;;;;;;9.63;8.65;;;13.30;99.90;;;;;;5019551;28;20405;-88
2022/09/12 01:15:41;;;;;;;10.52;8.88;;;14.20;99.90;;;;;;5052672;28;20127;-88
2022/09/12 01:18:36;;;;;;;12.98;9.45;;;13.20;99.90;;;;;;5019213;28;20468;-88
2022/09/12 01:21:13;;;;;;;11.00;9.77;;;13.20;99.90;;;;;;5036239;28;20060;-89
2022/09/12 01:24:17;;;;;;;11.38;9.40;;;13.20;99.90;;;;;;5035802;28;20374;-88
2022/09/12 01:27:03;;;;;;;11.20;9.70;;;13.20;99.90;;;;;;5035593;28;20586;-88
2022/09/12 01:29:58;;;;;;;11.57;10.38;;;13.20;99.90;;;;;;5036238;28;20090;-88
2022/09/12 01:32:38;;;;;;;13.65;10.63;;;13.20;99.90;;;;;;5036324;28;20062;-88
2022/09/12 01:35:27;;;;;;;11.95;10.18;;;13.20;99.90;;;;;;5035714;28;20403;-88
2022/09/12 01:38:21;;;;;;;11.80;10.18;;;13.20;99.90;;;;;;5036306;28;20092;-88
2022/09/12 01:41:12;;;;;;;11.65;9.50;;;13.20;99.90;;;;;;5035650;28;20048;-88
2022/09/12 01:43:57;;;;;;;11.35;9.95;;;13.10;99.90;;;;;;5029810;28;20098;-88
2022/09/12 01:46:49;;;;;;;10.90;9.88;;;13.10;99.90;;;;;;5036109;28;20079;-88
2022/09/12 01:49:19;;;;;;;11.77;9.77;;;13.40;99.90;;;;;;5035332;28;20467;-88
2022/09/12 01:52:09;;;;;;;12.60;10.20;;;13.10;99.90;;;;;;5052330;28;20079;-88
2022/09/12 01:54:41;;;;;;;10.80;9.52;;;13.90;99.90;;;;;;5046548;28;20056;-88
2022/09/12 01:57:18;;;;;;;13.77;10.77;;;13.00;99.90;;;;;;5051800;28;20123;-88
2022/09/12 01:59:49;;;;;;;14.30;11.32;;;13.00;99.90;;;;;;5035354;28;20054;-88
2022/09/12 02:02:22;;;;;;;15.13;13.52;;;13.10;99.90;;;;;;5052013;28;20044;-88
2022/09/12 02:04:59;;;;;;;;;;;13.10;99.90;;;;;;5035970;28;20036;-88
2022/09/12 02:07:39;;;;;;;12.98;11.68;;;13.10;99.90;;;;;;5035501;28;19999;-88
2022/09/12 02:10:16;;;;;;;13.38;12.07;;;13.10;99.90;;;;;;5034742;28;20048;-88
2022/09/12 02:12:50;;;;;;;13.75;12.32;;;13.10;99.90;;;;;;5035311;28;20519;-88
2022/09/12 02:15:20;;;;;;;14.40;12.60;;;13.10;99.90;;;;;;5034952;28;20396;-87
2022/09/12 02:17:49;;;;;;;14.00;12.25;;;13.10;99.90;;;;;;5034933;28;20102;-88
2022/09/12 02:20:32;;;;;;;14.20;12.73;;;12.10;99.90;;;;;;5034702;28;20178;-88
2022/09/12 02:23:02;;;;;;;15.02;12.98;;;13.10;99.90;;;;;;5035158;28;20361;-88
2022/09/12 02:25:29;;;;;;;15.68;13.77;;;13.10;99.90;;;;;;5034843;28;20041;-89
2022/09/12 02:28:03;;;;;;;17.80;15.98;;;13.10;99.90;;;;;;5017935;28;20040;-88
2022/09/12 02:30:38;;;;;;;16.98;14.27;;;13.10;99.90;;;;;;5034781;28;20048;-87
2022/09/12 02:33:05;;;;;;;16.30;14.70;;;13.50;99.90;;;;;;5051998;28;20105;-87
2022/09/12 02:35:57;;;;;;;17.40;15.60;;;14.20;99.90;;;;;;5034250;28;20040;-88
2022/09/12 02:38:34;;;;;;;16.80;15.05;;;13.10;99.90;;;;;;5034682;28;20044;-88
2022/09/12 02:41:00;;;;;;;16.55;14.90;;;13.10;99.90;;;;;;5034458;28;20127;-88
2022/09/12 02:43:26;;;;;;;17.98;15.63;;;13.80;99.90;;;;;;5034753;28;20182;-88
2022/09/12 02:45:52;;;;;;;19.50;15.98;;;14.30;99.90;;;;;;5035303;28;20127;-88
2022/09/12 02:48:28;;;;;;;18.63;15.65;;;13.30;99.90;;;;;;5017642;28;20129;-88
2022/09/12 02:50:54;;;;;;;18.02;16.00;;;13.10;99.90;;;;;;5034728;28;20048;-88
2022/09/12 02:53:21;;;;;;;17.60;15.90;;;13.10;99.90;;;;;;5018052;28;20047;-88
2022/09/12 02:55:48;;;;;;;22.30;18.17;;;13.10;99.90;;;;;;5034311;28;20476;-88
2022/09/12 02:58:21;;;;;;;19.92;17.90;;;14.20;99.90;;;;;;5034461;28;20051;-89
2022/09/12 03:00:50;;;;;;;19.63;17.48;;;13.60;99.90;;;;;;5050955;28;20033;-87
2022/09/12 03:03:37;;;;;;;19.63;17.50;;;13.10;99.90;;;;;;5035668;28;20079;-88
2022/09/12 03:06:25;;;;;;;19.85;17.13;;;13.10;99.90;;;;;;5034283;28;20045;-88
2022/09/12 03:08:57;;;;;;;20.65;18.55;;;13.20;99.90;;;;;;5034791;28;20135;-89
2022/09/12 03:11:49;;;;;;;20.85;18.10;;;13.10;99.90;;;;;;5034890;28;20045;-88
2022/09/12 03:14:49;;;;;;;22.38;19.92;;;13.00;99.90;;;;;;5034369;28;20519;-88
2022/09/12 03:17:44;;;;;;;27.45;22.35;;;13.00;99.90;;;;;;5034533;28;20562;-87
2022/09/12 03:20:22;;;;;;;26.25;22.85;;;13.00;99.90;;;;;;5034373;28;20143;-88
2022/09/12 03:22:55;;;;;;;31.50;28.23;;;13.00;99.90;;;;;;5050371;28;20070;-88
2022/09/12 03:25:30;;;;;;;;;;;13.00;99.90;;;;;;5035049;28;20705;-88
2022/09/12 03:28:13;;;;;;;40.47;35.03;;;12.10;99.90;;;;;;5051062;28;19920;-88
2022/09/12 03:30:41;;;;;;;39.72;32.85;;;13.00;99.90;;;;;;5050936;28;20048;-88
2022/09/12 03:33:11;;;;;;;35.58;31.00;;;13.00;99.90;;;;;;5035042;28;20135;-89
2022/09/12 03:35:37;;;;;;;41.22;34.50;;;13.00;99.90;;;;;;5052054;28;20049;-88
2022/09/12 03:38:04;;;;;;;37.55;33.40;;;13.50;99.90;;;;;;5035301;28;20499;-88
2022/09/12 03:40:29;;;;;;;35.15;31.10;;;13.00;99.90;;;;;;5017713;28;20060;-88
2022/09/12 03:42:55;;;;;;;36.08;31.17;;;13.00;99.90;;;;;;5051098;28;20048;-88
2022/09/12 03:45:21;;;;;;;35.00;28.73;;;14.20;99.90;;;;;;5018409;28;20089;-88
2022/09/12 03:47:46;;;;;;;31.80;28.38;;;13.00;99.90;;;;;;5018182;28;20040;-88
2022/09/12 03:50:12;;;;;;;35.63;28.73;;;13.00;99.90;;;;;;5018984;28;20052;-88
2022/09/12 03:52:38;;;;;;;33.45;27.17;;;12.90;99.90;;;;;;5034767;28;20442;-88
2022/09/12 03:55:04;;;;;;;29.63;26.35;;;12.90;99.90;;;;;;5052359;28;20067;-87
2022/09/12 03:57:30;;;;;;;30.70;27.50;;;12.90;99.90;;;;;;5035200;28;20052;-88
2022/09/12 03:59:56;;;;;;;33.38;29.38;;;12.90;99.90;;;;;;5036310;28;20048;-88
2022/09/12 04:02:21;;;;;;;32.95;28.30;;;12.80;99.90;;;;;;5040736;28;20131;-88
2022/09/12 04:04:47;;;;;;;31.55;28.13;;;12.80;99.90;;;;;;5056407;28;20039;-88
2022/09/12 04:07:15;;;;;;;30.25;26.35;;;12.80;99.90;;;;;;5040404;28;20150;-88
2022/09/12 04:09:40;;;;;;;28.55;25.60;;;13.30;99.90;;;;;;5057975;28;20546;-88
2022/09/12 04:12:06;;;;;;;28.92;25.15;;;12.80;99.90;;;;;;5074953;28;20036;-88
2022/09/12 04:14:33;;;;;;;26.27;23.48;;;13.70;99.90;;;;;;5041235;28;20371;-89
2022/09/12 04:16:59;;;;;;;26.55;23.10;;;12.90;99.90;;;;;;5055934;28;20206;-89
2022/09/12 04:19:26;;;;;;;30.80;25.30;;;12.80;99.90;;;;;;5057329;28;20067;-88
2022/09/12 04:21:52;;;;;;;29.08;22.88;;;13.50;99.90;;;;;;5040773;28;20047;-88
2022/09/12 04:24:18;;;;;;;27.60;24.60;;;12.80;99.90;;;;;;5040968;28;20059;-88
2022/09/12 04:26:43;;;;;;;28.95;25.20;;;12.70;99.90;;;;;;5056481;28;20047;-87
2022/09/12 04:29:13;;;;;;;30.02;24.88;;;12.80;99.90;;;;;;5040374;28;20491;-87
2022/09/12 04:31:40;;;;;;;27.63;23.83;;;14.10;99.90;;;;;;5070733;28;20045;-85
2022/09/12 04:34:06;;;;;;;27.13;23.98;;;13.20;99.90;;;;;;5053808;28;20036;-86
2022/09/12 04:36:33;;;;;;;31.10;25.98;;;12.80;99.90;;;;;;5038603;28;20473;-85
2022/09/12 04:39:00;;;;;;;29.58;25.58;;;12.80;99.90;;;;;;5049870;28;20049;-86
2022/09/12 04:41:29;;;;;;;31.20;24.05;;;12.90;99.90;;;;;;5032963;28;20037;-87
2022/09/12 04:44:00;;;;;;;27.70;23.63;;;12.90;99.90;;;;;;5050451;28;20040;-83
2022/09/12 04:46:27;;;;;;;31.17;25.10;;;12.90;99.90;;;;;;5050260;28;20041;-85
2022/09/12 04:48:54;;;;;;;29.45;24.25;;;12.90;99.90;;;;;;5049760;28;20222;-85
2022/09/12 04:51:26;;;;;;;30.63;23.85;;;13.00;99.90;;;;;;5032979;28;20586;-84
2022/09/12 04:53:55;;;;;;;30.83;23.27;;;13.00;99.90;;;;;;5033293;28;20466;-87
2022/09/12 04:56:21;;;;;;;32.15;23.58;;;13.00;99.90;;;;;;5049383;28;20071;-84
2022/09/12 04:58:51;;;;;;;28.83;24.20;;;14.20;99.90;;;;;;5048963;28;20098;-85
2022/09/12 05:01:19;;;;;;;27.85;23.15;;;13.10;99.90;;;;;;5048575;28;20045;-85
2022/09/12 05:03:49;;;;;;;29.98;24.00;;;13.40;99.90;;;;;;5049397;28;20044;-85
2022/09/12 05:06:23;;;;;;;34.20;23.92;;;13.30;99.90;;;;;;5048433;28;20127;-86
2022/09/12 05:08:50;;;;;;;34.58;25.52;;;13.40;99.90;;;;;;5048968;28;20131;-86
2022/09/12 05:11:19;;;;;;;31.38;24.77;;;13.40;99.90;;;;;;5066285;28;20037;-87
2022/09/12 05:13:45;;;;;;;32.92;25.15;;;13.50;99.90;;;;;;5033152;28;20059;-87
2022/09/12 05:16:14;;;;;;;33.25;24.25;;;13.60;99.90;;;;;;5049640;28;20045;-86
2022/09/12 05:18:40;;;;;;;28.65;22.90;;;13.70;99.90;;;;;;5049509;28;20052;-90
2022/09/12 05:21:11;;;;;;;32.95;24.60;;;13.70;99.90;;;;;;5032866;28;20048;-91
2022/09/12 05:23:37;;;;;;;31.42;23.42;;;13.80;99.90;;;;;;5049443;28;20040;-87
2022/09/12 05:26:04;;;;;;;30.65;23.27;;;13.90;99.90;;;;;;5033732;28;20040;-84
2022/09/12 05:28:33;;;;;;;31.45;23.13;;;13.90;99.90;;;;;;5032441;28;20477;-83
2022/09/12 05:31:20;;;;;;;31.88;23.27;;;14.00;99.90;;;;;;5031746;28;20063;-82
2022/09/12 05:33:48;;;;;;;27.55;22.67;;;14.10;99.90;;;;;;5048826;28;20488;-83
2022/09/12 05:36:28;;;;;;;30.45;23.58;;;14.20;99.90;;;;;;5048604;28;20399;-83
2022/09/12 05:38:54;;;;;;;26.33;22.48;;;14.20;99.90;;;;;;5031970;28;20049;-82
2022/09/12 05:41:24;;;;;;;27.58;22.60;;;14.30;99.90;;;;;;5048453;28;20499;-83
2022/09/12 05:43:55;;;;;;;30.02;21.80;;;14.30;99.90;;;;;;5048233;28;20041;-83
2022/09/12 05:46:24;;;;;;;29.92;22.35;;;14.30;99.90;;;;;;5048785;28;20053;-83
2022/09/12 05:48:51;;;;;;;26.63;21.38;;;14.40;99.90;;;;;;5031140;28;20567;-83
2022/09/12 05:51:19;;;;;;;27.25;21.88;;;14.40;99.90;;;;;;5048371;28;20048;-83
2022/09/12 05:53:48;;;;;;;25.45;20.67;;;14.50;99.90;;;;;;5032608;28;20045;-83
2022/09/12 05:56:16;;;;;;;28.80;21.05;;;14.50;99.90;;;;;;5051608;28;20044;-83
2022/09/12 05:58:47;;;;;;;23.98;20.55;;;14.50;99.90;;;;;;5051788;28;20049;-83
2022/09/12 06:01:15;;;;;;;26.05;20.10;;;14.60;99.90;;;;;;5035052;28;20055;-86
2022/09/12 06:03:46;;;;;;;31.13;21.17;;;15.30;99.90;;;;;;5035766;28;20519;-89
2022/09/12 06:06:13;;;;;;;24.42;19.85;;;14.70;99.90;;;;;;5051506;28;20044;-86
2022/09/12 06:08:40;;;;;;;24.63;20.50;;;14.70;99.90;;;;;;5035369;28;20041;-89
2022/09/12 06:11:07;;;;;;;30.98;20.48;;;14.80;99.90;;;;;;5018848;28;20052;-88
2022/09/12 06:13:38;;;;;;;24.65;20.02;;;14.80;99.90;;;;;;5018462;28;20126;-88
2022/09/12 06:16:10;;;;;;;26.88;20.92;;;14.80;99.90;;;;;;5052716;28;20125;-85
2022/09/12 06:18:37;;;;;;;28.17;21.30;;;14.90;99.90;;;;;;5034726;28;20381;-89
2022/09/12 06:21:06;;;;;;;23.20;19.58;;;14.90;99.90;;;;;;5035450;28;20162;-90
2022/09/12 06:23:33;;;;;;;26.25;21.35;;;15.00;99.90;;;;;;5034785;28;20105;-86
2022/09/12 06:25:59;;;;;;;30.02;23.42;;;15.10;99.90;;;;;;5018377;28;20419;-87
2022/09/12 06:28:25;;;;;;;29.33;21.75;;;15.10;99.90;;;;;;5051217;28;20040;-85
2022/09/12 06:30:51;;;;;;;31.05;23.35;;;15.20;99.90;;;;;;5018210;28;20094;-87
2022/09/12 06:33:17;;;;;;;30.75;21.95;;;15.30;99.90;;;;;;5051272;28;20528;-89
2022/09/12 06:35:43;;;;;;;32.13;23.23;;;15.30;99.90;;;;;;5034014;28;20105;-89
2022/09/12 06:38:09;;;;;;;33.63;23.15;;;15.40;99.90;;;;;;5034893;28;20090;-87
2022/09/12 06:40:43;;;;;;;32.42;24.63;;;15.40;99.90;;;;;;5017991;28;20048;-86
2022/09/12 06:43:11;;;;;;;35.67;24.45;;;15.80;99.90;;;;;;5018231;28;20035;-86
2022/09/12 06:45:38;;;;;;;37.45;24.70;;;15.50;99.90;;;;;;5051665;28;20049;-87
2022/09/12 06:48:04;;;;;;;38.53;26.08;;;15.50;99.90;;;;;;5019587;28;20055;-89
2022/09/12 06:50:30;;;;;;;35.90;25.73;;;15.60;99.90;;;;;;5020381;28;20043;-90
2022/09/12 06:52:56;;;;;;;38.55;26.58;;;15.60;99.90;;;;;;5052207;28;20040;-90
2022/09/12 06:55:23;;;;;;;36.03;25.40;;;15.60;99.90;;;;;;5036277;28;20036;-89
2022/09/12 06:57:49;;;;;;;36.88;26.30;;;15.60;99.90;;;;;;5020444;28;20040;-91
2022/09/12 07:00:15;;;;;;;36.38;26.98;;;15.60;99.90;;;;;;5018180;28;20041;-87
2022/09/12 07:02:40;;;;;;;35.03;26.08;;;15.70;99.90;;;;;;5036085;28;20045;-90
2022/09/12 07:05:07;;;;;;;35.78;28.02;;;15.70;99.90;;;;;;5041732;28;20037;-91
2022/09/12 07:07:34;;;;;;;38.08;26.67;;;15.70;99.90;;;;;;5027784;28;20302;-90
2022/09/12 07:10:01;;;;;;;39.67;28.38;;;15.70;99.90;;;;;;5026428;28;20517;-89
2022/09/12 07:12:28;;;;;;;41.55;28.08;;;15.80;99.90;;;;;;5029565;28;20044;-90
2022/09/12 07:14:54;;;;;;;43.58;30.20;;;15.80;99.90;;;;;;5027132;28;20104;-90
2022/09/12 07:17:20;;;;;;;42.60;29.17;;;15.80;99.90;;;;;;5020761;28;20132;-89
2022/09/12 07:19:46;;;;;;;38.58;28.33;;;15.90;99.90;;;;;;5036595;28;20173;-88
2022/09/12 07:22:12;;;;;;;43.03;28.77;;;15.90;99.90;;;;;;5019353;28;20080;-88
2022/09/12 07:24:38;;;;;;;40.80;29.48;;;16.00;99.90;;;;;;5034954;28;20053;-87
2022/09/12 07:27:04;;;;;;;38.50;29.02;;;16.10;99.90;;;;;;5019042;28;20047;-89
2022/09/12 07:29:30;;;;;;;45.15;30.08;;;16.10;99.90;;;;;;5020028;28;20404;-91
2022/09/12 07:31:55;;;;;;;42.85;28.85;;;16.20;99.90;;;;;;5036176;28;20117;-90
2022/09/12 07:34:21;;;;;;;41.45;29.10;;;16.20;99.90;;;;;;5019398;28;20053;-90
2022/09/12 07:36:47;;;;;;;39.85;29.55;;;16.30;99.90;;;;;;5052316;28;20419;-88
2022/09/12 07:39:13;;;;;;;41.95;29.92;;;16.40;99.90;;;;;;5017911;28;20044;-89
2022/09/12 07:41:38;;;;;;;44.08;30.13;;;16.40;99.90;;;;;;5034545;28;20595;-90
2022/09/12 07:44:07;;;;;;;42.25;30.77;;;16.50;99.90;;;;;;5017940;28;20079;-91
2022/09/12 07:46:34;;;;;;;46.95;31.33;;;16.60;99.90;;;;;;5035589;28;20045;-90
2022/09/12 07:49:00;;;;;;;45.40;32.30;;;16.60;99.90;;;;;;5017254;28;20037;-87
2022/09/12 07:51:28;;;;;;;46.72;29.92;;;16.80;99.90;;;;;;5016792;28;20047;-88
2022/09/12 07:53:55;;;;;;;46.70;31.52;;;17.70;99.90;;;;;;5017129;28;20041;-89
2022/09/12 07:56:21;;;;;;;46.10;29.73;;;16.70;99.90;;;;;;5050236;28;20044;-87
2022/09/12 07:58:47;;;;;;;50.92;32.17;;;16.80;99.90;;;;;;5050555;28;20041;-88
2022/09/12 08:01:20;;;;;;;44.70;31.00;;;16.80;99.90;;;;;;5049488;28;20506;-87
2022/09/12 08:03:48;;;;;;;47.97;30.52;;;16.90;99.90;;;;;;5050268;28;20042;-88
2022/09/12 08:06:20;;;;;;;44.88;29.42;;;16.90;99.90;;;;;;5033547;28;20041;-89
2022/09/12 08:08:46;;;;;;;45.90;30.58;;;16.90;99.90;;;;;;5033068;28;20044;-89
2022/09/12 08:11:15;;;;;;;44.70;30.73;;;17.00;99.90;;;;;;5050922;28;20098;-90
2022/09/12 08:13:42;;;;;;;42.25;29.13;;;17.10;99.90;;;;;;5033725;28;20052;-88
2022/09/12 08:16:11;;;;;;;45.42;28.88;;;17.10;99.90;;;;;;5034119;28;20041;-89
2022/09/12 08:18:38;;;;;;;49.20;30.65;;;17.10;99.90;;;;;;5033513;28;20412;-88
2022/09/12 08:21:06;;;;;;;46.35;30.77;;;17.20;99.90;;;;;;5017454;28;20051;-86
2022/09/12 08:23:34;;;;;;;45.30;29.95;;;17.20;99.90;;;;;;5034334;28;20049;-87
2022/09/12 08:26:02;;;;;;;50.53;32.25;;;17.20;99.90;;;;;;5054829;28;20151;-89
2022/09/12 08:28:29;;;;;;;41.13;28.42;;;17.20;99.90;;;;;;5044821;28;20101;-90
2022/09/12 08:31:06;;;;;;;45.15;29.85;;;17.30;99.90;;;;;;5060556;28;20090;-89
2022/09/12 08:33:33;;;;;;;43.88;29.77;;;17.30;99.90;;;;;;5041352;28;20052;-89
2022/09/12 08:36:23;;;;;;;53.30;32.28;;;17.40;99.90;;;;;;5035383;28;20136;-89
2022/09/12 08:38:54;;;;;;;41.60;29.25;;;17.50;99.90;;;;;;5027403;28;20044;-87
2022/09/12 08:41:29;;;;;;;42.72;28.35;;;18.00;99.90;;;;;;5033115;28;20037;-86
2022/09/12 08:44:13;;;;;;;44.67;28.63;;;17.60;99.90;;;;;;5049514;28;20369;-86
2022/09/12 08:47:07;;;;;;;40.33;28.98;;;17.80;99.90;;;;;;5033875;28;20045;-92
2022/09/12 08:49:57;;;;;;;38.08;27.23;;;17.90;99.90;;;;;;5034311;28;20910;-90
2022/09/12 08:52:32;;;;;;;42.40;28.02;;;18.00;99.90;;;;;;5050452;28;20076;-89
2022/09/12 08:55:00;;;;;;;39.25;25.67;;;18.20;99.90;;;;;;5051344;28;20492;-90
2022/09/12 08:57:26;;;;;;;40.10;26.65;;;18.20;99.90;;;;;;5016344;28;20078;-87
2022/09/12 08:59:52;;;;;;;37.83;27.80;;;18.30;99.90;;;;;;5032974;28;20044;-88
2022/09/12 09:02:33;;;;;;;37.20;25.20;;;18.30;99.90;;;;;;5049685;28;20439;-88
2022/09/12 09:05:24;;;;;;;36.28;25.85;;;18.40;99.90;;;;;;5049780;28;20045;-90
2022/09/12 09:08:25;;;;;;;36.47;25.90;;;18.50;99.90;;;;;;5051096;28;20044;-91
2022/09/12 09:11:15;;;;;;;36.00;25.25;;;18.60;99.90;;;;;;5034139;28;20140;-91
2022/09/12 09:16:55;;;;;;;35.80;24.88;;;18.80;99.90;;;;;;5051689;28;20056;-91
2022/09/12 09:19:36;;;;;;;34.45;25.33;;;18.90;99.90;;;;;;5033779;28;20067;-92
2022/09/12 09:22:20;;;;;;;36.53;24.73;;;18.90;99.90;;;;;;5050513;28;20484;-90
2022/09/12 09:24:54;;;;;;;38.65;24.77;;;18.90;99.90;;;;;;5051375;28;20055;-92
2022/09/12 09:27:29;;;;;;;34.60;23.83;;;19.00;99.90;;;;;;5050675;28;20044;-94
2022/09/12 09:29:55;;;;;;;34.33;24.48;;;19.00;99.90;;;;;;5055509;28;20545;-91
2022/09/12 09:32:37;;;;;;;38.00;25.40;;;19.00;99.90;;;;;;5038520;28;20040;-91
2022/09/12 09:35:17;;;;;;;32.72;23.95;;;19.10;99.90;;;;;;5054159;28;20496;-94
2022/09/12 09:38:12;;;;;;;36.20;24.15;;;19.10;99.90;;;;;;5038433;28;20093;-92
2022/09/12 09:40:53;;;;;;;33.55;23.50;;;19.10;99.90;;;;;;5054143;28;20475;-90
2022/09/12 09:43:26;;;;;;;34.58;23.20;;;19.20;99.90;;;;;;5054712;28;20135;-94
2022/09/12 09:45:52;;;;;;;34.08;23.20;;;19.60;99.90;;;;;;5037533;28;20500;-90
2022/09/12 09:48:22;;;;;;;36.40;24.55;;;19.50;99.90;;;;;;5036061;28;20083;-90
2022/09/12 09:50:49;;;;;;;36.60;24.60;;;19.70;99.90;;;;;;5037466;28;20119;-90
2022/09/12 09:53:25;;;;;;;30.58;22.10;;;19.90;99.90;;;;;;5019419;28;20492;-90
2022/09/12 09:55:53;;;;;;;32.75;21.92;;;20.10;99.90;;;;;;5035575;28;20052;-90
2022/09/12 09:58:33;;;;;;;36.47;23.15;;;20.30;99.90;;;;;;5053457;28;20053;-92
2022/09/12 10:01:01;;;;;;;33.20;22.65;;;20.40;99.90;;;;;;5020867;28;20479;-91
2022/09/12 10:03:38;;;;;;;31.75;23.20;;;20.50;99.90;;;;;;5036784;28;20040;-90
2022/09/12 10:06:21;;;;;;;35.53;21.95;;;20.60;99.90;;;;;;5020879;28;20385;-91
2022/09/12 10:08:49;;;;;;;30.30;20.80;;;20.60;99.90;;;;;;5037233;28;20032;-92
2022/09/12 10:11:14;;;;;;;29.60;22.33;;;20.70;99.90;;;;;;5021756;28;20045;-93
2022/09/12 10:13:50;;;;;;;33.33;20.60;;;20.70;99.90;;;;;;5037205;28;20044;-93
2022/09/12 10:16:51;;;;;;;31.52;22.13;;;20.90;99.90;;;;;;5055245;28;20059;-92
2022/09/12 10:19:23;;;;;;;31.73;21.25;;;21.00;99.90;;;;;;5040459;28;20064;-93
2022/09/12 10:21:54;;;;;;;36.75;22.27;;;21.10;99.90;;;;;;5057508;28;20082;-90
2022/09/12 10:24:29;;;;;;;31.75;21.73;;;21.20;99.90;;;;;;5061409;28;20107;-94
2022/09/12 10:27:04;;;;;;;30.15;21.10;;;21.20;99.90;;;;;;5066606;28;20036;-92
2022/09/12 10:29:34;;;;;;;33.47;21.02;;;21.30;99.90;;;;;;5047480;28;20049;-89
2022/09/12 10:32:07;;;;;;;30.55;21.30;;;21.40;99.90;;;;;;5034974;28;20098;-85
2022/09/12 10:34:44;;;;;;;31.95;18.85;;;21.50;99.90;;;;;;5034976;28;20143;-89
2022/09/12 10:37:27;;;;;;;30.65;20.17;;;21.60;99.90;;;;;;5018419;28;20045;-88
2022/09/12 10:39:58;;;;;;;33.33;20.63;;;21.80;99.90;;;;;;5033722;28;20084;-88
2022/09/12 10:42:45;;;;;;;28.42;18.73;;;21.90;99.90;;;;;;5035552;28;20048;-87
2022/09/12 10:45:27;;;;;;;32.22;18.33;;;22.00;99.90;;;;;;5050792;28;20040;-87
2022/09/12 10:47:57;;;;;;;27.98;18.95;;;22.20;99.90;;;;;;5034977;28;20548;-88
2022/09/12 10:50:55;;;;;;;22.52;16.20;;;22.30;99.90;;;;;;5051720;28;20131;-87
2022/09/12 10:53:45;;;;;;;27.10;18.15;;;22.40;99.90;;;;;;5025571;28;20113;-88
2022/09/12 10:56:18;;;;;;;25.08;16.25;;;22.60;99.90;;;;;;5017938;28;20040;-88
2022/09/12 10:58:52;;;;;;;25.55;14.55;;;22.70;99.90;;;;;;5035096;28;20052;-89
2022/09/12 11:01:33;;;;;;;19.65;13.02;;;22.70;99.90;;;;;;5034299;28;20115;-87
2022/09/12 11:04:15;;;;;;;19.23;11.20;;;22.80;99.90;;;;;;5035163;28;20045;-89
2022/09/12 11:07:05;;;;;;;22.88;12.38;;;22.80;99.90;;;;;;5033715;28;20048;-89
2022/09/12 11:09:34;;;;;;;17.40;12.27;;;22.80;99.90;;;;;;5034428;28;20488;-88
2022/09/12 11:12:06;;;;;;;17.90;12.95;;;22.80;99.90;;;;;;5035106;28;20234;-88
2022/09/12 11:15:07;;;;;;;20.57;14.10;;;22.80;99.90;;;;;;5033618;28;20094;-88
2022/09/12 11:17:53;;;;;;;22.42;14.13;;;22.80;99.90;;;;;;5027674;28;20052;-87
2022/09/12 11:20:50;;;;;;;28.67;16.35;;;22.90;99.90;;;;;;5034095;28;20062;-89
2022/09/12 11:23:41;;;;;;;22.48;15.70;;;23.00;99.90;;;;;;5033805;28;20040;-88
2022/09/12 11:26:19;;;;;;;26.83;15.95;;;23.10;99.90;;;;;;5035502;28;20052;-88
2022/09/12 11:28:54;;;;;;;27.38;16.80;;;23.20;99.90;;;;;;5034603;28;20044;-88
2022/09/12 11:31:23;;;;;;;25.88;16.67;;;23.30;99.90;;;;;;5049443;28;20044;-89
2022/09/12 11:33:53;;;;;;;23.80;15.07;;;23.40;99.90;;;;;;5034190;28;20447;-88
2022/09/12 11:36:33;;;;;;;30.98;18.70;;;23.50;99.90;;;;;;5033128;28;20049;-89
2022/09/12 11:39:08;;;;;;;23.02;14.40;;;23.60;99.90;;;;;;5034292;28;20080;-89
2022/09/12 11:41:38;;;;;;;22.08;13.25;;;23.60;99.90;;;;;;5035376;28;20051;-91
2022/09/12 11:44:09;;;;;;;18.80;11.93;;;23.60;99.90;;;;;;5036724;28;20557;-91
2022/09/12 11:46:37;;;;;;;16.08;10.00;;;23.70;99.90;;;;;;5044846;28;20491;-90
2022/09/12 11:49:12;;;;;;;21.27;10.77;;;23.80;99.90;;;;;;5042574;28;20050;-90
2022/09/12 11:51:57;;;;;;;17.40;11.57;;;23.90;99.90;;;;;;5043798;28;20533;-91
2022/09/12 11:54:34;;;;;;;19.63;12.05;;;24.00;99.90;;;;;;5037930;28;20049;-89
2022/09/12 11:57:25;;;;;;;17.50;11.02;;;24.00;99.90;;;;;;5034696;28;20135;-91
2022/09/12 12:00:13;;;;;;;14.68;9.13;;;24.00;99.90;;;;;;5035269;28;20105;-90
2022/09/12 12:03:10;;;;;;;13.40;7.78;;;23.90;99.90;;;;;;5050262;28;20055;-92
2022/09/12 12:05:39;;;;;;;8.23;6.40;;;23.90;99.90;;;;;;5038880;28;20438;-96
2022/09/12 12:08:05;;;;;;;10.95;6.40;;;23.90;99.90;;;;;;5036485;28;20137;-96
2022/09/12 12:10:43;;;;;;;10.40;6.82;;;23.90;99.90;;;;;;5037982;28;20052;-96
2022/09/12 12:13:38;;;;;;;9.27;5.88;;;24.00;99.90;;;;;;5054081;28;20040;-96
2022/09/12 12:16:19;;;;;;;12.52;6.70;;;24.00;99.90;;;;;;5032562;28;20076;-83
2022/09/12 12:18:45;;;;;;;11.35;8.18;;;24.00;99.90;;;;;;5067472;28;20056;-84
2022/09/12 12:21:39;;;;;;;9.80;7.47;;;23.90;99.90;;;;;;5050065;28;20090;-84
2022/09/12 12:24:08;;;;;;;11.93;7.20;;;23.80;99.90;;;;;;5031631;28;20399;-84
2022/09/12 12:26:39;;;;;;;13.25;7.90;;;23.80;99.90;;;;;;5049823;28;20044;-83
2022/09/12 12:29:12;;;;;;;9.40;6.70;;;23.90;99.90;;;;;;5032269;28;20344;-83
2022/09/12 12:31:56;;;;;;;;;;;24.00;99.90;;;;;;5049674;28;20283;-83
2022/09/12 12:34:43;;;;;;;8.80;6.00;;;24.20;99.90;;;;;;5067526;28;19966;-83
2022/09/12 12:37:18;;;;;;;9.05;6.20;;;24.40;99.90;;;;;;5048080;28;20044;-83
2022/09/12 12:39:44;;;;;;;9.90;5.40;;;24.40;99.90;;;;;;5049269;28;20404;-85
2022/09/12 12:42:30;;;;;;;6.97;6.07;;;24.40;99.90;;;;;;5032307;28;20044;-84
2022/09/12 12:44:56;;;;;;;8.52;5.47;;;24.30;99.90;;;;;;5018070;28;20091;-83
2022/09/12 12:47:37;;;;;;;7.25;5.07;;;24.40;99.90;;;;;;5049510;28;20087;-84
2022/09/12 12:50:05;;;;;;;7.30;5.10;;;24.50;99.90;;;;;;5031468;28;20052;-84
2022/09/12 12:52:43;;;;;;;6.93;4.78;;;24.60;99.90;;;;;;5032898;28;20451;-84
2022/09/12 12:55:15;;;;;;;10.07;4.88;;;24.60;98.70;;;;;;5032109;28;20048;-84
2022/09/12 12:57:54;;;;;;;9.82;4.60;;;24.60;99.10;;;;;;5048670;28;20047;-84
2022/09/12 13:00:20;;;;;;;6.88;4.47;;;24.60;98.30;;;;;;5049491;28;20131;-84
2022/09/12 13:03:10;;;;;;;5.15;4.10;;;24.60;97.90;;;;;;5032011;28;20591;-84